Gas City, IN (46933)

8:35 AM EST on December 05, 2016 (GMT -0500)
MY Yard Barn | | Change Station

Elev 853 ft 40.49 °N, 85.62 °W | Updated 3 minutes ago

Overcast
Overcast
33.0 °F
Feels Like 30 °F
N
3.4
Wind Variable Wind from SW
Gusts 4.8 mph

Today
High -- | Low -- °F
--% Chance of Precip.
Yesterday
High -- | Low -- °F
Precip. -- in
Pressure 30.08 in
Visibility 7.0 miles
Clouds Overcast 1100 ft
Windchill 30 °F
Dew Point 32 °F
Humidity 95%
Rainfall 0.02 in
Snow Depth Not available.
7:50 AM 5:15 PM
Waxing Crescent, 31% visible
METAR KMZZ 051315Z AUTO 24005KT 7SM OVC011 00/M01 A3008 RMK AO2 T00001010
Pressure 30.08 in
Visibility 7.0 miles
Clouds Overcast 1100 ft
Windchill 30 °F
Dew Point 32 °F
Humidity 95%
Rainfall 0.02 in
Snow Depth Not available.
7:50 AM 5:15 PM
Waxing Crescent, 31% visible
METAR KMZZ 051315Z AUTO 24005KT 7SM OVC011 00/M01 A3008 RMK AO2 T00001010

10-Day Weather Forecast

Almanac

Astronomy

Dec. 05, 2016 Rise Set
Actual Time
Civil Twilight
Nautical Twilight
Astronomical Twilight
Moon
Length of Visible Light
Length of Day
Tomorrow will be .
, % of the Moon is Illuminated

Today's Extremes

State Highs State Lows

Community

WunderPhotos

Upload Photos

1,955,780 photos uploaded!

WunderBlog® & News

Nearby

Air Quality

  Air Quality AQ Index Pollutant
Not available.

Snow Depth

Station Depth Elevation

Earthquake Activity

City Distance Mag. Time & Date
Minimum magnitude displayed is 2.5.

Coastal Water Temperatures

Place Temperature

Stations

Nearby Weather Stations

Station Location Temp. Windchill Dew Point Humidity Wind Precip. Elev Updated Type
                   

Watches & Warnings

There are currently no watches in effect.